createdAt,value
2018-04-13T00:02:14.499Z,1.43
2018-04-13T00:04:41.060Z,1.57
2018-04-13T00:07:08.008Z,1.50
2018-04-13T00:09:34.563Z,2.10
2018-04-13T00:12:01.473Z,1.43
2018-04-13T00:14:28.035Z,1.70
2018-04-13T00:16:54.605Z,4.13
2018-04-13T00:19:21.512Z,2.37
2018-04-13T00:21:48.080Z,2.17
2018-04-13T00:24:14.672Z,0.90
2018-04-13T00:26:41.576Z,1.90
2018-04-13T00:29:08.145Z,3.70
2018-04-13T00:31:34.720Z,2.10
2018-04-13T00:34:01.629Z,5.90
2018-04-13T00:36:28.200Z,2.60
2018-04-13T00:38:54.764Z,6.20
2018-04-13T00:41:21.674Z,3.80
2018-04-13T00:43:48.268Z,1.80
2018-04-13T00:46:15.224Z,4.87
2018-04-13T00:48:42.162Z,1.03
2018-04-13T00:51:08.736Z,3.87
2018-04-13T00:53:35.672Z,2.20
2018-04-13T00:56:02.204Z,2.47
2018-04-13T00:58:28.772Z,3.27
2018-04-13T01:00:55.740Z,3.10
2018-04-13T01:03:22.639Z,0.70
2018-04-13T01:05:49.204Z,0.70
2018-04-13T01:08:15.769Z,2.57
2018-04-13T01:10:42.304Z,3.40
2018-04-13T01:13:08.880Z,6.23
2018-04-13T01:15:35.816Z,1.37
2018-04-13T01:18:02.368Z,2.63
2018-04-13T01:20:28.932Z,3.03
2018-04-13T01:22:55.872Z,2.13
2018-04-13T01:25:22.404Z,3.47
2018-04-13T01:27:48.959Z,5.40
2018-04-13T01:30:15.525Z,1.73
2018-04-13T01:32:42.432Z,2.53
2018-04-13T01:35:08.998Z,2.30
2018-04-13T01:37:35.572Z,4.53
2018-04-13T01:40:02.531Z,1.20
2018-04-13T01:42:29.476Z,3.08
2018-04-13T01:44:56.031Z,3.60
2018-04-13T01:47:22.931Z,6.50
2018-04-13T01:49:49.513Z,1.07
2018-04-13T01:52:16.092Z,1.57
2018-04-13T01:54:42.995Z,8.17
2018-04-13T01:57:09.553Z,2.17
2018-04-13T01:59:36.112Z,1.27
2018-04-13T02:02:02.720Z,1.15
2018-04-13T02:04:29.296Z,2.57
2018-04-13T02:06:55.860Z,1.60
2018-04-13T02:09:22.391Z,2.50
2018-04-13T02:11:48.954Z,1.87
2018-04-13T02:14:15.524Z,4.77
2018-04-13T02:16:42.427Z,1.50
2018-04-13T02:19:09.004Z,1.90
2018-04-13T02:21:35.609Z,1.17
2018-04-13T02:24:02.147Z,4.40
2018-04-13T02:26:35.535Z,3.42
2018-04-13T02:29:02.468Z,3.90
2018-04-13T02:31:29.008Z,2.60
2018-04-13T02:33:55.604Z,3.00
2018-04-13T02:36:25.004Z,5.33
2018-04-13T02:38:51.908Z,4.10
2018-04-13T02:41:18.473Z,3.90
2018-04-13T02:43:45.040Z,7.90
2018-04-13T02:46:11.940Z,1.80
2018-04-13T02:48:38.576Z,3.28
2018-04-13T02:51:05.165Z,3.50
2018-04-13T02:53:31.693Z,4.27
2018-04-13T02:55:58.260Z,3.23
2018-04-13T02:58:24.832Z,5.93
2018-04-13T03:00:51.736Z,2.77
2018-04-13T03:03:18.324Z,6.60
2018-04-13T03:05:44.884Z,1.80
2018-04-13T03:08:11.789Z,5.23
2018-04-13T03:10:38.353Z,3.83
2018-04-13T03:13:04.928Z,11.20
2018-04-13T03:15:31.455Z,6.30
2018-04-13T03:17:58.015Z,4.80
2018-04-13T03:20:24.584Z,2.57
2018-04-13T03:22:51.488Z,8.30
2018-04-13T03:25:18.060Z,9.33
2018-04-13T03:27:44.620Z,5.20
2018-04-13T03:30:11.163Z,5.10
2018-04-13T03:32:37.735Z,13.83
2018-04-13T03:35:04.300Z,5.27
2018-04-13T03:37:30.836Z,11.93
2018-04-13T03:39:57.403Z,8.33
2018-04-13T03:42:23.964Z,8.70
2018-04-13T03:44:50.499Z,3.57
2018-04-13T03:47:17.060Z,21.13
2018-04-13T03:49:43.620Z,4.63
2018-04-13T03:52:10.147Z,13.13
2018-04-13T03:54:36.712Z,6.50
2018-04-13T03:57:03.321Z,7.00
2018-04-13T03:59:29.844Z,8.33
2018-04-13T04:01:56.844Z,7.53
2018-04-13T04:04:23.404Z,7.20
2018-04-13T04:06:49.932Z,9.77
2018-04-13T04:09:16.549Z,6.97
2018-04-13T04:11:43.484Z,14.27
2018-04-13T04:14:10.013Z,9.90
2018-04-13T04:16:36.584Z,10.10
2018-04-13T04:19:03.519Z,14.10
2018-04-13T04:21:42.171Z,4.40
2018-04-13T04:24:20.935Z,7.43
2018-04-13T04:26:48.404Z,4.13
2018-04-13T04:29:14.965Z,19.13
2018-04-13T04:31:41.510Z,8.50
2018-04-13T04:34:08.089Z,7.40
2018-04-13T04:36:34.684Z,15.37
2018-04-13T04:39:01.217Z,14.03
2018-04-13T04:41:28.152Z,13.53
2018-04-13T04:43:54.744Z,7.12
2018-04-13T04:46:21.292Z,6.53
2018-04-13T04:48:47.857Z,9.30
2018-04-13T04:51:14.424Z,8.20
2018-04-13T04:53:40.960Z,9.43
2018-04-13T04:56:07.532Z,8.33
2018-04-13T04:58:34.143Z,14.43
2018-04-13T05:01:00.674Z,10.37
2018-04-13T05:03:27.316Z,9.40
2018-04-13T05:05:54.293Z,5.87
2018-04-13T05:08:20.824Z,10.93
2018-04-13T05:10:47.384Z,15.53
2018-04-13T05:13:13.943Z,13.90
2018-04-13T05:15:40.476Z,14.97
2018-04-13T05:18:07.042Z,17.23
2018-04-13T05:20:33.617Z,9.90
2018-04-13T05:23:00.152Z,13.93
2018-04-13T05:25:26.736Z,7.70
2018-04-13T05:27:53.720Z,12.53
2018-04-13T05:30:20.251Z,13.83
2018-04-13T05:32:46.831Z,13.10
2018-04-13T05:35:13.451Z,24.30
2018-04-13T05:37:40.344Z,6.23
2018-04-13T05:40:06.911Z,8.63
2018-04-13T05:42:33.481Z,15.10
2018-04-13T05:45:00.004Z,16.97
2018-04-13T05:47:26.613Z,8.50
2018-04-13T05:49:53.176Z,7.23
2018-04-13T05:52:19.701Z,5.77
2018-04-13T05:54:46.273Z,15.63
2018-04-13T05:57:12.837Z,9.30
2018-04-13T05:59:39.372Z,15.33
2018-04-13T06:02:05.946Z,12.97
2018-04-13T06:04:32.552Z,12.23
2018-04-13T06:06:59.127Z,11.33
2018-04-13T06:09:25.704Z,15.87
2018-04-13T06:11:52.667Z,14.73
2018-04-13T06:14:19.567Z,19.20
2018-04-13T06:16:46.140Z,5.40
2018-04-13T06:19:12.707Z,25.63
2018-04-13T06:21:39.232Z,13.90
2018-04-13T06:24:05.800Z,16.37
2018-04-13T06:26:32.364Z,7.27
2018-04-13T06:28:59.272Z,9.77
2018-04-13T06:31:25.831Z,9.63
2018-04-13T06:33:52.387Z,10.93
2018-04-13T06:36:18.981Z,6.03
2018-04-13T06:38:45.572Z,22.00
2018-04-13T06:41:12.135Z,6.23
2018-04-13T06:43:38.669Z,5.40
2018-04-13T06:46:05.648Z,15.03
2018-04-13T06:48:32.213Z,11.03
2018-04-13T06:50:58.767Z,6.50
2018-04-13T06:53:25.332Z,7.10
2018-04-13T06:55:51.900Z,6.67
2018-04-13T06:58:18.436Z,7.67
2018-04-13T07:00:45.007Z,14.67
2018-04-13T07:06:05.755Z,10.03
2018-04-13T07:08:32.328Z,6.50
2018-04-13T07:10:59.228Z,13.50
2018-04-13T07:13:25.796Z,6.13
2018-04-13T07:15:52.356Z,10.83
2018-04-13T07:18:18.892Z,15.77
2018-04-13T07:20:45.455Z,12.00
2018-04-13T07:23:12.027Z,11.33
2018-04-13T07:25:38.968Z,8.33
2018-04-13T07:28:20.425Z,9.47
2018-04-13T07:30:47.000Z,12.37
2018-04-13T07:33:13.653Z,10.60
2018-04-13T07:35:40.505Z,4.13
2018-04-13T07:38:07.071Z,10.03
2018-04-13T07:40:33.961Z,8.10
2018-04-13T07:43:00.527Z,9.60
2018-04-13T07:45:27.092Z,9.23
2018-04-13T07:47:53.628Z,14.43
2018-04-13T07:50:20.328Z,19.30
2018-04-13T07:52:47.155Z,11.90
2018-04-13T07:55:13.725Z,9.83
2018-04-13T07:57:40.667Z,9.10
2018-04-13T08:00:07.270Z,3.77
2018-04-13T08:02:33.852Z,3.30
2018-04-13T08:05:00.653Z,3.70
2018-04-13T08:07:27.064Z,4.10
2018-04-13T08:09:53.595Z,3.03
2018-04-13T08:12:20.266Z,2.80
2018-04-13T08:14:46.764Z,2.60
2018-04-13T08:17:13.300Z,5.63
2018-04-13T08:19:39.872Z,3.60
2018-04-13T08:22:06.445Z,2.20
2018-04-13T08:24:32.979Z,1.80
2018-04-13T08:26:59.556Z,2.40
2018-04-13T08:29:26.496Z,8.13
2018-04-13T08:31:53.043Z,6.73
2018-04-13T08:34:19.616Z,3.70
2018-04-13T08:36:46.551Z,3.03
2018-04-13T08:39:13.107Z,1.17
2018-04-13T08:41:40.072Z,3.90
2018-04-13T08:44:06.655Z,5.23
2018-04-13T08:46:33.191Z,6.10
2018-04-13T08:48:59.848Z,3.20
2018-04-13T08:51:26.350Z,2.00
2018-04-13T08:53:52.901Z,4.73
2018-04-13T08:56:19.841Z,6.17
2018-04-13T08:58:46.440Z,1.00
2018-04-13T09:01:12.984Z,1.67
2018-04-13T09:03:39.555Z,6.07
2018-04-13T09:06:06.191Z,9.50
2018-04-13T09:08:32.728Z,2.23
2018-04-13T09:10:59.296Z,2.43
2018-04-13T09:13:25.924Z,1.77
2018-04-13T09:15:52.448Z,3.17
2018-04-13T09:18:19.401Z,0.90
2018-04-13T09:20:46.348Z,4.33
2018-04-13T09:23:12.908Z,0.90
2018-04-13T09:25:39.852Z,2.83
2018-04-13T09:28:06.800Z,1.47
2018-04-13T09:30:33.339Z,9.63
2018-04-13T09:32:59.917Z,1.63
2018-04-13T09:35:26.861Z,2.63
2018-04-13T09:37:53.777Z,1.63
2018-04-13T09:40:20.341Z,1.70
2018-04-13T09:42:46.911Z,2.03
2018-04-13T09:45:13.844Z,3.93
2018-04-13T09:47:40.412Z,3.70
2018-04-13T09:50:07.347Z,0.67
2018-04-13T09:52:34.385Z,3.03
2018-04-13T09:55:00.953Z,7.30
2018-04-13T09:57:27.521Z,2.63
2018-04-13T09:59:54.047Z,1.13
2018-04-13T10:02:20.659Z,1.30
2018-04-13T10:04:47.271Z,2.97
2018-04-13T10:07:13.837Z,5.90
2018-04-13T10:09:40.764Z,6.07
2018-04-13T10:12:07.341Z,8.80
2018-04-13T10:14:34.245Z,7.83
2018-04-13T10:17:00.812Z,0.70
2018-04-13T10:19:27.388Z,7.17
2018-04-13T10:21:54.284Z,1.47
2018-04-13T10:24:20.848Z,4.83
2018-04-13T10:26:47.418Z,3.03
2018-04-13T10:29:13.953Z,2.93
2018-04-13T10:31:40.527Z,3.23
2018-04-13T10:34:07.125Z,2.00
2018-04-13T10:36:33.673Z,0.80
2018-04-13T10:39:00.240Z,1.57
2018-04-13T10:41:26.803Z,1.47
2018-04-13T10:43:53.700Z,5.93
2018-04-13T10:46:20.320Z,0.50
2018-04-13T10:48:47.301Z,0.70
2018-04-13T10:51:13.828Z,5.33
2018-04-13T10:53:40.777Z,2.60
2018-04-13T10:56:07.720Z,5.67
2018-04-13T10:58:34.239Z,0.70
2018-04-13T11:01:00.795Z,3.50
2018-04-13T11:03:27.352Z,0.80
2018-04-13T11:05:53.948Z,0.90
2018-04-13T11:08:20.532Z,6.40
2018-04-13T11:10:47.151Z,5.13
2018-04-13T11:13:13.680Z,0.83
2018-04-13T11:15:40.616Z,0.80
2018-04-13T11:18:07.205Z,2.10
2018-04-13T11:20:33.736Z,3.27
2018-04-13T11:23:00.310Z,6.07
2018-04-13T11:25:26.908Z,1.53
2018-04-13T11:27:53.811Z,3.27
2018-04-13T11:30:20.372Z,1.80
2018-04-13T11:32:46.928Z,0.97
2018-04-13T11:35:13.460Z,4.30
2018-04-13T11:37:40.024Z,8.73
2018-04-13T11:40:06.624Z,5.93
2018-04-13T11:42:33.156Z,7.30
2018-04-13T11:45:00.108Z,1.03
2018-04-13T11:47:27.042Z,5.33
2018-04-13T11:49:53.567Z,34.23
2018-04-13T11:52:20.132Z,6.10
2018-04-13T11:54:46.705Z,4.63
2018-04-13T11:57:13.612Z,2.50
2018-04-13T11:59:40.179Z,3.70
2018-04-13T12:02:06.808Z,4.73
2018-04-13T12:04:33.336Z,3.63
2018-04-13T12:06:59.951Z,3.23
2018-04-13T12:09:26.898Z,4.33
2018-04-13T12:11:53.436Z,10.00
2018-04-13T12:14:20.005Z,5.33
2018-04-13T12:16:46.952Z,5.10
2018-04-13T12:19:13.480Z,3.97
2018-04-13T12:21:40.052Z,12.70
2018-04-13T12:24:06.988Z,3.20
2018-04-13T12:26:33.535Z,6.80
2018-04-13T12:29:00.101Z,2.90
2018-04-13T12:31:27.089Z,3.77
2018-04-13T12:33:53.659Z,4.70
2018-04-13T12:36:20.229Z,5.37
2018-04-13T12:38:46.804Z,6.60
2018-04-13T12:41:13.713Z,7.60
2018-04-13T12:43:40.276Z,9.80
2018-04-13T12:48:40.008Z,3.57
2018-04-13T12:51:06.577Z,8.03
2018-04-13T12:53:33.167Z,1.60
2018-04-13T12:56:00.180Z,7.30
2018-04-13T12:58:26.712Z,1.03
2018-04-13T13:00:53.244Z,3.90
2018-04-13T13:03:19.808Z,1.10
2018-04-13T13:05:46.372Z,0.97
2018-04-13T13:08:12.939Z,3.00
2018-04-13T13:10:39.540Z,0.73
2018-04-13T13:13:06.102Z,1.20
2018-04-13T13:15:32.633Z,3.27
2018-04-13T13:17:59.245Z,3.73
2018-04-13T13:20:26.232Z,0.90
2018-04-13T13:22:52.764Z,1.47
2018-04-13T13:25:19.332Z,1.27
2018-04-13T13:27:45.893Z,1.13
2018-04-13T13:30:12.421Z,5.77
2018-04-13T13:32:38.976Z,11.23
2018-04-13T13:35:05.539Z,3.93
2018-04-13T13:37:32.095Z,1.43
2018-04-13T13:39:58.684Z,7.50
2018-04-13T13:42:25.623Z,4.93
2018-04-13T13:44:52.160Z,4.77
2018-04-13T13:47:18.719Z,7.80
2018-04-13T13:49:45.279Z,1.60
2018-04-13T13:52:12.176Z,2.77
2018-04-13T13:54:38.731Z,1.57
2018-04-13T13:57:05.304Z,1.27
2018-04-13T13:59:31.872Z,1.13
2018-04-13T14:01:58.804Z,5.53
2018-04-13T14:04:25.368Z,1.70
2018-04-13T14:06:51.929Z,3.00
2018-04-13T14:09:18.859Z,3.60
2018-04-13T14:11:45.432Z,5.50
2018-04-13T14:14:12.336Z,6.57
2018-04-13T14:16:38.932Z,2.27
2018-04-13T14:19:05.876Z,2.83
2018-04-13T14:21:32.416Z,24.13
2018-04-13T14:23:59.363Z,45.27
2018-04-13T14:26:25.928Z,39.23
2018-04-13T14:28:52.472Z,48.73
2018-04-13T14:31:19.415Z,18.87
2018-04-13T14:33:45.981Z,74.27
2018-04-13T14:36:12.885Z,25.43
2018-04-13T14:38:39.481Z,6.43
2018-04-13T14:41:06.048Z,19.27
2018-04-13T14:43:32.594Z,7.13
2018-04-13T14:45:59.528Z,7.10
2018-04-13T14:48:26.103Z,8.10
2018-04-13T14:50:52.659Z,8.70
2018-04-13T14:53:19.228Z,8.00
2018-04-13T14:55:45.792Z,3.67
2018-04-13T14:58:12.417Z,10.13
2018-04-13T15:00:38.992Z,4.83
2018-04-13T15:03:05.569Z,6.33
2018-04-13T15:05:32.480Z,3.00
2018-04-13T15:07:59.096Z,3.10
2018-04-13T15:10:25.680Z,3.93
2018-04-13T15:12:52.208Z,5.80
2018-04-13T15:15:18.769Z,3.87
2018-04-13T15:17:45.358Z,5.30
2018-04-13T15:20:11.927Z,2.70
2018-04-13T15:22:38.877Z,8.63
2018-04-13T15:25:05.860Z,3.73
2018-04-13T15:27:32.392Z,3.97
2018-04-13T15:29:58.975Z,3.20
2018-04-13T15:32:25.537Z,3.87
2018-04-13T15:34:52.073Z,3.83
2018-04-13T15:37:18.644Z,1.63
2018-04-13T15:39:45.207Z,5.80
2018-04-13T15:42:11.773Z,1.10
2018-04-13T15:44:38.700Z,3.90
2018-04-13T15:47:05.273Z,1.97
2018-04-13T15:49:31.804Z,2.30
2018-04-13T15:51:58.388Z,0.77
2018-04-13T15:54:24.951Z,1.40
2018-04-13T15:56:51.524Z,0.83
2018-04-13T15:59:18.084Z,1.17
2018-04-13T16:01:44.669Z,2.23
2018-04-13T16:04:11.201Z,1.43
2018-04-13T16:06:38.177Z,0.50
2018-04-13T16:09:04.816Z,0.70
2018-04-13T16:11:31.352Z,0.73
2018-04-13T16:13:58.343Z,3.03
2018-04-13T16:16:24.921Z,2.50
2018-04-13T16:18:51.456Z,1.87
2018-04-13T16:21:18.032Z,1.90
2018-04-13T16:23:44.599Z,0.70
2018-04-13T16:26:11.501Z,3.43
2018-04-13T16:28:38.061Z,5.93
2018-04-13T16:31:04.629Z,1.00
2018-04-13T16:33:31.154Z,0.67
2018-04-13T16:35:57.720Z,3.37
2018-04-13T16:38:24.348Z,1.47
2018-04-13T16:40:50.880Z,1.40
2018-04-13T16:43:17.497Z,2.00
2018-04-13T16:45:44.440Z,2.40
2018-04-13T16:48:10.993Z,1.50
2018-04-13T16:50:37.944Z,1.97
2018-04-13T16:53:04.889Z,2.50
2018-04-13T16:55:31.423Z,1.33
2018-04-13T16:57:58.393Z,1.63
2018-04-13T17:00:24.964Z,1.73
2018-04-13T17:02:51.873Z,2.70
2018-04-13T17:05:18.463Z,3.90
2018-04-13T17:07:45.444Z,2.80
2018-04-13T17:10:11.991Z,2.07
2018-04-13T17:12:38.565Z,4.50
2018-04-13T17:15:05.161Z,3.70
2018-04-13T17:17:32.072Z,4.23
2018-04-13T17:19:58.635Z,5.00
2018-04-13T17:22:25.209Z,4.60
2018-04-13T17:24:52.285Z,3.90
2018-04-13T17:27:18.856Z,4.63
2018-04-13T17:29:45.424Z,12.40
2018-04-13T17:32:12.020Z,5.00
2018-04-13T17:34:46.001Z,4.80
2018-04-13T17:37:12.576Z,5.20
2018-04-13T17:39:39.104Z,3.70
2018-04-13T17:42:05.692Z,4.97
2018-04-13T17:44:32.270Z,4.67
2018-04-13T17:46:58.894Z,7.83
2018-04-13T17:49:25.849Z,3.97
2018-04-13T17:51:52.483Z,4.87
2018-04-13T17:54:19.424Z,4.60
2018-04-13T17:56:46.012Z,5.37
2018-04-13T17:59:12.594Z,3.73
2018-04-13T18:01:39.157Z,3.93
2018-04-13T18:04:05.745Z,4.17
2018-04-13T18:06:32.318Z,3.70
2018-04-13T18:08:58.905Z,3.77
2018-04-13T18:11:25.539Z,4.07
2018-04-13T18:13:52.175Z,3.58
2018-04-13T18:16:18.780Z,9.17
2018-04-13T18:18:45.715Z,20.37
2018-04-13T18:21:12.279Z,7.50
2018-04-13T18:23:39.193Z,5.00
2018-04-13T18:26:05.776Z,4.40
2018-04-13T18:28:32.708Z,4.20
2018-04-13T18:30:59.253Z,4.40
2018-04-13T18:33:25.844Z,4.00
2018-04-13T18:35:52.438Z,4.80
2018-04-13T18:38:19.760Z,5.33
2018-04-13T18:40:46.340Z,3.93
2018-04-13T18:43:12.924Z,5.50
2018-04-13T18:45:39.488Z,19.60
2018-04-13T18:48:07.026Z,18.13
2018-04-13T18:50:33.652Z,8.83
2018-04-13T18:53:00.188Z,7.87
2018-04-13T18:55:26.759Z,8.80
2018-04-13T18:57:53.412Z,5.73
2018-04-13T19:00:19.912Z,6.80
2018-04-13T19:02:46.486Z,6.30
2018-04-13T19:05:13.068Z,4.80
2018-04-13T19:07:39.602Z,6.23
2018-04-13T19:10:06.201Z,4.90
2018-04-13T19:12:32.769Z,7.53
2018-04-13T19:14:59.384Z,5.63
2018-04-13T19:17:26.351Z,7.43
2018-04-13T19:19:52.924Z,7.80
2018-04-13T19:22:19.467Z,6.53
2018-04-13T19:24:46.116Z,6.40
2018-04-13T19:27:12.793Z,5.97
2018-04-13T19:29:40.745Z,6.57
2018-04-13T19:32:08.337Z,8.10
2018-04-13T19:34:34.954Z,11.53
2018-04-13T19:37:01.515Z,13.20
2018-04-13T19:39:28.104Z,7.23
2018-04-13T19:41:56.328Z,7.67
2018-04-13T19:44:23.264Z,6.90
2018-04-13T19:46:49.911Z,8.13
2018-04-13T19:49:16.486Z,4.93
2018-04-13T19:51:43.027Z,6.60
2018-04-13T19:54:09.612Z,5.20
2018-04-13T19:56:36.188Z,7.80
2018-04-13T19:59:02.738Z,5.70
2018-04-13T20:01:29.307Z,5.40
2018-04-13T20:03:56.253Z,4.57
2018-04-13T20:06:22.873Z,5.03
2018-04-13T20:08:49.472Z,5.60
2018-04-13T20:11:16.045Z,5.00
2018-04-13T20:13:42.596Z,5.50
2018-04-13T20:16:09.241Z,4.60
2018-04-13T20:18:36.074Z,4.73
2018-04-13T20:21:02.805Z,6.83
2018-04-13T20:23:29.379Z,5.53
2018-04-13T20:25:55.993Z,6.18
2018-04-13T20:28:22.584Z,6.23
2018-04-13T20:30:49.177Z,6.05
2018-04-13T20:33:15.750Z,5.93
2018-04-13T20:35:42.655Z,6.30
2018-04-13T20:38:09.219Z,5.93
2018-04-13T20:40:35.784Z,6.30
2018-04-13T20:43:02.318Z,8.33
2018-04-13T20:45:28.908Z,6.13
2018-04-13T20:47:55.480Z,6.77
2018-04-13T20:50:22.004Z,9.97
2018-04-13T20:52:48.572Z,5.70
2018-04-13T20:55:15.132Z,6.80
2018-04-13T20:57:41.683Z,6.53
2018-04-13T21:00:08.308Z,7.20
2018-04-13T21:02:34.899Z,5.40
2018-04-13T21:05:01.841Z,5.70
2018-04-13T21:07:28.430Z,6.90
2018-04-13T21:09:55.417Z,6.00
2018-04-13T21:12:21.974Z,5.67
2018-04-13T21:14:48.552Z,6.87
2018-04-13T21:17:15.130Z,7.10
2018-04-13T21:19:42.056Z,6.20
2018-04-13T21:22:08.664Z,7.17
2018-04-13T21:24:35.240Z,6.43
2018-04-13T21:27:01.789Z,6.00
2018-04-13T21:29:28.380Z,6.03
2018-04-13T21:31:55.327Z,7.80
2018-04-13T21:34:21.859Z,6.80
2018-04-13T21:36:48.440Z,6.33
2018-04-13T21:39:15.043Z,6.97
2018-04-13T21:41:41.593Z,5.87
2018-04-13T21:44:08.157Z,6.67
2018-04-13T21:46:34.726Z,5.40
2018-04-13T21:49:01.632Z,8.10
2018-04-13T21:51:28.199Z,7.00
2018-04-13T21:53:54.798Z,6.73
2018-04-13T21:56:21.331Z,6.97
2018-04-13T21:58:48.261Z,6.60
2018-04-13T22:01:15.247Z,7.50
2018-04-13T22:03:42.157Z,7.20
2018-04-13T22:06:08.736Z,10.30
2018-04-13T22:08:35.684Z,8.07
2018-04-13T22:11:02.646Z,8.20
2018-04-13T22:13:29.951Z,8.75
2018-04-13T22:15:56.794Z,10.68
2018-04-13T22:18:23.389Z,10.60
2018-04-13T22:20:49.952Z,10.03
2018-04-13T22:23:16.518Z,10.57
2018-04-13T22:25:43.089Z,10.35
2018-04-13T22:28:09.669Z,11.45
2018-04-13T22:30:36.244Z,10.27
2018-04-13T22:33:03.178Z,11.23
2018-04-13T22:35:29.751Z,10.82
2018-04-13T22:37:56.692Z,16.15
2018-04-13T22:40:23.231Z,10.77
2018-04-13T22:42:49.806Z,11.02
2018-04-13T22:45:16.761Z,11.80
2018-04-13T22:47:43.671Z,12.05
2018-04-13T22:50:10.275Z,12.02
2018-04-13T22:52:36.852Z,12.00
2018-04-13T22:55:03.428Z,12.90
2018-04-13T22:57:29.994Z,12.30
2018-04-13T22:59:56.562Z,11.50
2018-04-13T23:02:23.477Z,12.15
2018-04-13T23:04:50.071Z,11.70
2018-04-13T23:07:16.695Z,12.63
2018-04-13T23:09:43.303Z,12.37
2018-04-13T23:12:09.904Z,13.60
2018-04-13T23:14:36.845Z,12.48
2018-04-13T23:17:03.379Z,12.45
2018-04-13T23:19:29.950Z,14.40
2018-04-13T23:21:56.522Z,14.10
2018-04-13T23:24:23.052Z,15.25
2018-04-13T23:26:49.992Z,15.27
2018-04-13T23:29:16.560Z,16.73
2018-04-13T23:31:43.460Z,15.38
2018-04-13T23:34:10.027Z,17.27
2018-04-13T23:36:36.592Z,21.20
2018-04-13T23:39:03.242Z,18.75
2018-04-13T23:41:29.820Z,20.02
2018-04-13T23:43:56.757Z,18.60
2018-04-13T23:46:23.659Z,19.95
2018-04-13T23:48:50.232Z,20.48
2018-04-13T23:51:16.804Z,19.77
2018-04-13T23:53:43.332Z,20.45
2018-04-13T23:56:09.896Z,20.95
2018-04-13T23:58:36.476Z,21.80
